Terminal Aerodrome Forecast
Issued by NWS Omaha/Valley, NE

Home | Current Version | Previous Version | Text Only | Print | Product List | Glossary On
Versions: 1 2 3 4 5 6 7 8 9 10 11 12 13 14 15 16 17 18 19 20 21 22 23 24 25 26 27 28 29 30 31 32 33 34 35 36 37 38
000
FTUS43 KOAX 160941 AAA
TAFOFK
TAF AMD
KOFK 160941Z 1610/1706 17004KT P6SM SCT007
      TEMPO 1610/1614 3SM BR
     FM161500 18009KT P6SM SCT035
     FM161800 18013KT P6SM SCT040 SCT100
     FM170000 16007KT P6SM SCT040 BKN250=

USA.gov is the U.S. government's official web portal to all federal, state and local government web resources and services.